Kenosha Regional Airport Kenosha US
ICAO: KENW
IATA: ENW
Category: Medium
Scheduled Services: No

Elevation: 742 ft
TransAlt. 18000 ft.

Airport Communications:
MILWAUKEE APP/DEP:120.15
ASOS:127.175
ATIS:127.175
CLNC DEL:118.6
CTAF:118.6
GND:121.875
GREEN BAY RDO:109.2
TWR:118.6
UNICOM:122.95

KENW Zoom In..

Runways:

(A) RW 07L length 5499 ft width 100 ft
ILS 109.35 / hdg 66

(B) RW 07R length 3302 ft width 75 ft
---- / hdg 66

(C) RW 15 length 4440 ft width 100 ft
---- / hdg 146

(D) RW 25L length 3302 ft width 75 ft
---- / hdg 246

(E) RW 25R length 5499 ft width 100 ft
---- / hdg 246

(F) RW 33 length 4440 ft width 100 ft
---- / hdg 326

Location; KENW
Day. 15 / Time. 22.53 Zulu
* Altimeter: 29.93
* Temperature: 29° c. 84.2°f.
* Wind from: 100° Speed 03 kn.
Dewpoint: 22° c.
Visibility: 10 Statute Miles.
Clouds: Few 3100 ft.

KENW 152253Z 10003KT 10SM FEW031 29/22 A2993 RMK AO2 SLP130 T02940217


Wind From 100°
Speed 03 kn.

 
 
jpsmedia.com for Web Design worldairports.se 2018   terms of use